Time;durP1;ratioP1;P1;durP2;ratioP2;P2;SDS_P1;SDS_P2;PMS_P1;PMS_P2;Temp;Humidity;BMP_temperature;BMP_pressure;BME280_temperature;BME280_humidity;BME280_pressure;Samples;Min_cycle;Max_cycle;Signal;HPM_P1;HPM_P2
2022/08/04 00:05:47;;;;;;;7.15;3.50;;;30.70;34.90;;;;;;21245849;27;20047;-58
2022/08/04 00:16:09;;;;;;;6.60;2.38;;;30.60;35.20;;;;;;21248878;27;20487;-55
2022/08/04 00:26:13;;;;;;;8.95;2.90;;;30.60;35.00;;;;;;21248290;27;20107;-55
2022/08/04 00:36:16;;;;;;;12.80;2.65;;;30.40;35.30;;;;;;21248476;27;20112;-58
2022/08/04 00:46:27;;;;;;;7.43;2.75;;;30.40;35.20;;;;;;21248584;28;20060;-59
2022/08/04 00:57:02;;;;;;;7.43;2.50;;;30.20;35.20;;;;;;21247327;28;20181;-57
2022/08/04 01:07:36;;;;;;;8.88;2.95;;;30.20;34.70;;;;;;21248578;28;20448;-56
2022/08/04 01:18:02;;;;;;;8.13;3.10;;;30.10;34.70;;;;;;21247440;28;20436;-59
2022/08/04 01:28:22;;;;;;;14.00;2.95;;;29.90;34.70;;;;;;21246733;28;20104;-58
2022/08/04 01:38:29;;;;;;;5.30;2.42;;;29.80;34.50;;;;;;21246775;28;20055;-57
2022/08/04 01:48:36;;;;;;;5.43;2.28;;;29.60;34.60;;;;;;21260908;27;20043;-56
2022/08/04 01:58:47;;;;;;;8.65;3.70;;;29.50;34.80;;;;;;21259649;27;20054;-56
2022/08/04 02:09:17;;;;;;;7.60;2.28;;;29.40;34.70;;;;;;21258660;27;20180;-58
2022/08/04 02:19:45;;;;;;;7.70;2.40;;;29.30;34.90;;;;;;21258080;27;20051;-57
2022/08/04 02:30:00;;;;;;;5.78;2.58;;;29.20;35.10;;;;;;21258074;27;20043;-56
2022/08/04 02:40:18;;;;;;;5.32;2.33;;;29.10;35.10;;;;;;21257102;27;20097;-57
2022/08/04 02:50:24;;;;;;;4.10;2.42;;;29.00;35.10;;;;;;21237557;27;20479;-57
2022/08/04 03:00:29;;;;;;;5.65;2.30;;;29.00;35.20;;;;;;21254244;27;20047;-57
2022/08/04 03:10:59;;;;;;;4.82;2.53;;;28.90;35.10;;;;;;21253886;27;20471;-56
2022/08/04 03:21:19;;;;;;;7.85;3.00;;;28.80;35.20;;;;;;21253125;27;20047;-54
2022/08/04 03:31:31;;;;;;;4.03;2.17;;;28.70;35.40;;;;;;21252702;27;20499;-58
2022/08/04 03:41:51;;;;;;;5.40;2.55;;;28.60;35.40;;;;;;21251414;27;20512;-56
2022/08/04 04:03:06;;;;;;;5.00;2.50;;;28.60;35.50;;;;;;21249014;27;20089;-57
2022/08/04 04:13:16;;;;;;;8.93;2.92;;;28.50;36.00;;;;;;21249340;27;20501;-56
2022/08/04 04:23:50;;;;;;;4.78;2.25;;;28.30;36.40;;;;;;21248480;27;20045;-57
2022/08/04 04:34:17;;;;;;;5.97;2.70;;;28.30;36.50;;;;;;20903637;28;20140;-55
2022/08/04 04:44:47;;;;;;;4.93;2.90;;;28.30;36.60;;;;;;20903180;28;20041;-58
2022/08/04 04:55:27;;;;;;;6.35;2.67;;;28.20;36.70;;;;;;20902765;28;20052;-57
2022/08/04 05:05:56;;;;;;;6.67;2.50;;;28.10;36.20;;;;;;21040191;28;20062;-56
2022/08/04 05:16:08;;;;;;;5.97;2.50;;;28.00;36.20;;;;;;21250083;27;20506;-57
2022/08/04 05:26:14;;;;;;;7.95;2.75;;;27.90;36.90;;;;;;21262750;27;20453;-57
2022/08/04 05:36:23;;;;;;;8.77;3.13;;;27.70;36.90;;;;;;21261257;27;20094;-57
2022/08/04 05:46:26;;;;;;;7.35;3.17;;;27.70;36.40;;;;;;21261522;27;20047;-57
2022/08/04 05:56:31;;;;;;;11.05;2.80;;;27.60;36.10;;;;;;21260076;27;20083;-58
2022/08/04 06:06:36;;;;;;;8.23;3.65;;;27.60;36.10;;;;;;21258942;27;20053;-58
2022/08/04 06:16:41;;;;;;;11.25;2.72;;;27.60;36.20;;;;;;21257957;27;20047;-56
2022/08/04 06:26:46;;;;;;;7.72;3.10;;;27.60;35.90;;;;;;21257387;27;20410;-54
2022/08/04 06:36:48;;;;;;;10.30;3.03;;;27.70;36.00;;;;;;21237825;27;20135;-55
2022/08/04 06:46:51;;;;;;;9.10;3.17;;;27.80;35.90;;;;;;21256257;27;20070;-57
2022/08/04 06:56:57;;;;;;;6.82;3.22;;;28.20;35.50;;;;;;21254621;27;20075;-57
2022/08/04 07:06:59;;;;;;;8.93;3.13;;;28.70;34.80;;;;;;21255060;27;20443;-55
2022/08/04 07:17:03;;;;;;;7.53;2.92;;;29.10;34.30;;;;;;21253226;27;20075;-56
2022/08/04 07:27:06;;;;;;;12.70;2.83;;;29.50;33.60;;;;;;21252490;27;20051;-56
2022/08/04 07:37:08;;;;;;;8.20;3.03;;;29.90;32.50;;;;;;21252299;27;20408;-57
2022/08/04 07:47:09;;;;;;;8.20;3.25;;;30.20;31.80;;;;;;21231927;27;20502;-58
2022/08/04 07:57:11;;;;;;;5.75;2.00;;;30.50;31.20;;;;;;21250422;27;20054;-57
2022/08/04 08:07:13;;;;;;;11.57;3.40;;;30.70;30.60;;;;;;21249190;27;20487;-57
2022/08/04 08:17:15;;;;;;;11.82;2.88;;;31.00;31.10;;;;;;21248440;27;20145;-58
2022/08/04 08:27:17;;;;;;;5.78;2.30;;;31.10;30.60;;;;;;21248025;27;20047;-58
2022/08/04 08:37:22;;;;;;;6.50;2.33;;;31.30;30.10;;;;;;21228826;27;20062;-57
2022/08/04 08:47:42;;;;;;;9.90;2.20;;;31.50;29.40;;;;;;21248027;28;20453;-60
2022/08/04 08:57:52;;;;;;;6.82;2.22;;;31.50;29.30;;;;;;21263984;27;20043;-57
2022/08/04 09:08:09;;;;;;;7.72;2.20;;;31.70;29.10;;;;;;21265420;27;20055;-59
2022/08/04 09:18:24;;;;;;;7.97;2.67;;;31.80;28.90;;;;;;21263797;27;20134;-56
2022/08/04 09:28:32;;;;;;;8.32;2.65;;;31.80;28.70;;;;;;21262924;27;20057;-59
2022/08/04 09:39:08;;;;;;;6.55;2.83;;;31.90;28.40;;;;;;21261058;27;20079;-56
2022/08/04 09:49:30;;;;;;;8.43;3.30;;;32.10;28.30;;;;;;21260884;27;20043;-55
2022/08/04 09:59:37;;;;;;;7.60;2.75;;;32.40;28.30;;;;;;21259193;27;20047;-57
2022/08/04 10:10:19;;;;;;;6.03;2.90;;;32.10;28.10;;;;;;21258080;27;20483;-59
2022/08/04 10:20:52;;;;;;;10.02;2.85;;;32.30;27.70;;;;;;21257503;27;20046;-57
2022/08/04 10:31:08;;;;;;;6.57;2.60;;;32.40;27.40;;;;;;21256909;27;20043;-59
2022/08/04 10:41:39;;;;;;;7.93;3.08;;;32.40;26.90;;;;;;21255303;27;20141;-57
2022/08/04 10:52:02;;;;;;;12.65;3.95;;;32.60;26.70;;;;;;21254402;27;20073;-56
2022/08/04 11:02:35;;;;;;;14.07;3.47;;;32.80;26.30;;;;;;21255355;27;20483;-56
2022/08/04 11:12:39;;;;;;;11.82;3.05;;;32.90;25.90;;;;;;21252952;27;20043;-57
2022/08/04 11:22:51;;;;;;;10.02;3.38;;;33.30;24.50;;;;;;21253524;27;20058;-55
2022/08/04 11:33:15;;;;;;;7.65;3.03;;;33.30;24.10;;;;;;21251950;27;20055;-56
2022/08/04 11:43:50;;;;;;;8.75;2.97;;;33.60;23.90;;;;;;21251746;27;20061;-55
2022/08/04 11:53:51;;;;;;;10.43;2.90;;;34.00;23.20;;;;;;21250873;27;20514;-58
2022/08/04 12:04:14;;;;;;;6.20;2.85;;;33.80;24.00;;;;;;21250268;27;20046;-58
2022/08/04 12:14:24;;;;;;;6.13;2.72;;;34.20;22.30;;;;;;21249000;27;20514;-59
2022/08/04 12:24:35;;;;;;;5.85;3.08;;;34.70;21.30;;;;;;21248688;27;20403;-58
2022/08/04 12:34:46;;;;;;;5.43;2.50;;;35.00;21.60;;;;;;21247099;27;20479;-56
2022/08/04 12:44:52;;;;;;;3.80;2.80;;;34.80;21.80;;;;;;21246536;28;20437;-55
2022/08/04 12:54:56;;;;;;;6.97;2.90;;;35.20;21.10;;;;;;21246954;28;20051;-58
2022/08/04 13:05:01;;;;;;;5.35;2.58;;;35.50;21.00;;;;;;21246578;28;20062;-57
2022/08/04 13:15:16;;;;;;;6.05;3.03;;;35.60;20.90;;;;;;21246500;28;20441;-57
2022/08/04 13:25:19;;;;;;;5.07;2.63;;;35.80;20.60;;;;;;21245925;28;20047;-58
2022/08/04 13:35:22;;;;;;;5.28;2.58;;;35.90;20.50;;;;;;21238016;27;20428;-56
2022/08/04 13:45:24;;;;;;;7.22;3.83;;;36.00;20.00;;;;;;21259993;27;20058;-57
2022/08/04 13:55:34;;;;;;;8.13;2.88;;;36.10;20.10;;;;;;21259961;27;20402;-56
2022/08/04 14:05:36;;;;;;;4.40;3.13;;;36.30;19.70;;;;;;21259304;27;20126;-57
2022/08/04 14:15:42;;;;;;;6.30;3.03;;;36.30;19.40;;;;;;21257856;27;20108;-57
2022/08/04 14:25:44;;;;;;;8.07;2.75;;;36.30;19.60;;;;;;21257689;27;20063;-57
2022/08/04 14:35:57;;;;;;;5.22;2.60;;;36.40;19.50;;;;;;21256819;27;20062;-58
2022/08/04 14:46:05;;;;;;;9.45;6.57;;;36.70;19.30;;;;;;21255361;27;20051;-57
2022/08/04 14:56:08;;;;;;;5.20;2.87;;;36.50;19.70;;;;;;21254393;27;20054;-55
2022/08/04 15:06:10;;;;;;;8.35;2.88;;;36.60;19.70;;;;;;21254260;27;20054;-55
2022/08/04 15:16:13;;;;;;;7.60;4.47;;;36.70;19.30;;;;;;21253333;27;20062;-58
2022/08/04 15:26:24;;;;;;;9.50;2.72;;;36.70;19.60;;;;;;21252959;27;20043;-59
2022/08/04 15:36:52;;;;;;;5.70;3.15;;;36.60;19.60;;;;;;21251132;27;20142;-57
2022/08/04 15:47:03;;;;;;;7.88;3.80;;;36.90;19.20;;;;;;21251367;27;20481;-59
2022/08/04 15:57:05;;;;;;;7.45;3.25;;;37.00;19.60;;;;;;21249069;27;20043;-58
2022/08/04 16:07:07;;;;;;;9.48;4.45;;;36.90;19.20;;;;;;21247968;27;20054;-57
2022/08/04 16:17:16;;;;;;;6.95;3.30;;;36.90;18.90;;;;;;21247661;27;20047;-58
2022/08/04 16:27:35;;;;;;;6.88;3.45;;;36.80;19.20;;;;;;21235912;27;20445;-57
2022/08/04 16:37:41;;;;;;;11.15;2.97;;;36.70;19.10;;;;;;21217400;27;20062;-58
2022/08/04 16:47:49;;;;;;;8.80;3.05;;;36.80;19.40;;;;;;21249257;28;20054;-57
2022/08/04 16:57:55;;;;;;;8.47;2.87;;;36.70;19.60;;;;;;21247290;28;20047;-56
2022/08/04 17:07:58;;;;;;;6.88;2.47;;;36.60;19.40;;;;;;21246114;28;20526;-58
2022/08/04 17:18:18;;;;;;;8.30;3.10;;;36.60;19.40;;;;;;21260493;27;20103;-57
2022/08/04 17:28:20;;;;;;;8.73;3.13;;;36.60;19.70;;;;;;21262666;27;20546;-56
2022/08/04 17:38:33;;;;;;;7.70;2.78;;;36.60;19.40;;;;;;21261083;27;20055;-56
2022/08/04 17:48:40;;;;;;;15.40;9.75;;;36.60;19.40;;;;;;21261996;27;20085;-59
2022/08/04 17:58:42;;;;;;;8.40;4.82;;;36.60;19.90;;;;;;21259654;27;20061;-57
2022/08/04 18:08:51;;;;;;;8.02;3.10;;;36.40;19.70;;;;;;21241898;27;20039;-58
2022/08/04 18:19:13;;;;;;;7.32;3.20;;;36.50;19.60;;;;;;21257790;27;20047;-58
2022/08/04 18:29:15;;;;;;;6.47;3.60;;;36.50;19.40;;;;;;21257480;27;20096;-57
2022/08/04 18:39:17;;;;;;;8.60;3.53;;;36.40;19.60;;;;;;21256530;27;20059;-59
2022/08/04 18:49:21;;;;;;;7.30;3.17;;;36.20;20.10;;;;;;21256501;27;20107;-60
2022/08/04 18:59:23;;;;;;;15.45;3.40;;;36.20;19.90;;;;;;21256592;27;20078;-57
2022/08/04 19:09:25;;;;;;;15.50;4.60;;;35.70;22.30;;;;;;21255178;27;20143;-58
2022/08/04 19:19:27;;;;;;;5.25;2.22;;;33.60;34.30;;;;;;21253168;27;20172;-58
2022/08/04 19:29:29;;;;;;;3.90;2.63;;;31.70;31.00;;;;;;21253638;27;20051;-58
2022/08/04 19:39:31;;;;;;;8.93;3.33;;;31.90;31.60;;;;;;21250612;27;20103;-56
2022/08/04 19:49:32;;;;;;;8.00;3.33;;;32.10;30.90;;;;;;21251747;27;20043;-56
2022/08/04 19:59:34;;;;;;;4.32;2.78;;;32.10;29.40;;;;;;21250282;27;20058;-56
2022/08/04 20:09:35;;;;;;;10.75;6.38;;;32.10;28.60;;;;;;21249375;27;20180;-58
2022/08/04 20:19:38;;;;;;;12.57;7.30;;;32.20;30.90;;;;;;21249277;27;20052;-60
2022/08/04 20:29:40;;;;;;;8.73;6.93;;;32.10;33.70;;;;;;21248180;27;20078;-57
2022/08/04 20:39:42;;;;;;;9.15;5.18;;;32.10;34.30;;;;;;21248625;27;20054;-56
2022/08/04 20:49:43;;;;;;;11.75;6.97;;;32.00;33.50;;;;;;21258433;27;20483;-57
2022/08/04 20:59:45;;;;;;;14.57;7.53;;;32.00;33.70;;;;;;21266866;27;20129;-59
2022/08/04 21:09:48;;;;;;;10.35;5.68;;;31.80;32.00;;;;;;21265768;27;20043;-58
2022/08/04 21:19:49;;;;;;;11.73;5.47;;;32.00;33.80;;;;;;21263318;27;20047;-58
2022/08/04 21:29:51;;;;;;;11.25;6.78;;;31.80;34.50;;;;;;21262619;27;20123;-57
2022/08/04 21:39:52;;;;;;;12.82;7.00;;;31.70;34.90;;;;;;21261776;27;20142;-57
2022/08/04 21:49:54;;;;;;;15.40;6.28;;;31.60;37.40;;;;;;21260669;27;20130;-58
2022/08/04 21:59:56;;;;;;;9.15;4.20;;;31.60;36.40;;;;;;21261182;27;20052;-58
2022/08/04 22:09:57;;;;;;;10.73;4.45;;;31.50;32.40;;;;;;21242119;27;20082;-58
2022/08/04 22:19:59;;;;;;;11.30;4.53;;;31.50;31.30;;;;;;21260220;27;20130;-59
2022/08/04 22:30:05;;;;;;;9.70;3.63;;;31.50;30.00;;;;;;21241180;27;20475;-57
2022/08/04 22:40:07;;;;;;;8.27;3.72;;;31.50;29.90;;;;;;21257285;27;20134;-60
2022/08/04 22:50:09;;;;;;;13.35;3.30;;;31.40;29.30;;;;;;21256635;27;20525;-61
2022/08/04 23:00:12;;;;;;;7.10;2.53;;;31.20;29.40;;;;;;21256595;27;20083;-58
2022/08/04 23:10:13;;;;;;;8.77;3.20;;;31.10;28.80;;;;;;21255164;27;20047;-58
2022/08/04 23:20:14;;;;;;;8.38;2.60;;;30.90;29.40;;;;;;21255369;27;20047;-55
2022/08/04 23:30:18;;;;;;;6.22;2.30;;;30.70;28.90;;;;;;21252968;27;20054;-58
2022/08/04 23:40:20;;;;;;;12.98;2.60;;;30.70;28.50;;;;;;21252457;27;20142;-56
2022/08/04 23:50:21;;;;;;;6.97;2.50;;;30.50;28.50;;;;;;21252261;27;20126;-58
